Time;durP1;ratioP1;P1;durP2;ratioP2;P2;SDS_P1;SDS_P2;PMS_P1;PMS_P2;Temp;Humidity;BMP_temperature;BMP_pressure;BME280_temperature;BME280_humidity;BME280_pressure;Samples;Min_cycle;Max_cycle;Signal;HPM_P1;HPM_P2
2023/02/11 00:03:04;;;;;;;28.50;14.58;;;;;;;-3.87;54.79;102032.12;1773012;78;21359;-58
2023/02/11 00:07:05;;;;;;;32.50;17.07;;;;;;;-3.97;54.65;102027.95;1685281;83;21382;-58
2023/02/11 00:10:45;;;;;;;34.30;16.65;;;;;;;-4.12;54.43;102031.92;1703353;83;21589;-57
2023/02/11 00:14:10;;;;;;;29.65;16.82;;;;;;;-4.18;54.52;102027.21;1709699;82;21287;-58
2023/02/11 00:17:36;;;;;;;34.45;16.77;;;;;;;-4.20;54.69;102022.39;1701003;82;21542;-58
2023/02/11 00:20:56;;;;;;;27.07;14.70;;;;;;;-4.20;54.82;102025.06;1671590;83;21749;-57
2023/02/11 00:24:14;;;;;;;23.80;14.50;;;;;;;-4.16;55.03;102030.73;1687446;84;21201;-56
2023/02/11 00:27:38;;;;;;;25.55;13.83;;;;;;;-4.13;55.08;102026.63;1678857;83;22008;-57
2023/02/11 00:31:01;;;;;;;25.80;14.23;;;;;;;-4.08;55.16;102034.06;1683877;82;21816;-57
2023/02/11 00:34:29;;;;;;;24.15;12.58;;;;;;;-4.07;55.22;102027.33;1688744;83;21256;-57
2023/02/11 00:37:42;;;;;;;24.00;12.78;;;;;;;-4.02;55.30;102033.43;1688611;82;21248;-57
2023/02/11 00:41:18;;;;;;;21.55;12.82;;;;;;;-3.97;55.35;102030.17;1683610;81;21355;-57
2023/02/11 00:45:33;;;;;;;22.17;12.20;;;;;;;-3.89;55.33;102024.14;1695482;83;21234;-57
2023/02/11 00:48:56;;;;;;;22.22;12.00;;;;;;;-3.83;55.24;102021.28;1695874;82;21187;-58
2023/02/11 00:52:15;;;;;;;23.98;12.75;;;;;;;-3.79;55.16;102018.91;1713678;82;21239;-57
2023/02/11 00:55:34;;;;;;;30.60;14.75;;;;;;;-3.76;55.11;102015.28;1711418;81;21504;-57
2023/02/11 00:58:47;;;;;;;30.15;16.40;;;;;;;-3.74;55.02;102012.11;1718924;83;21645;-58
2023/02/11 01:02:15;;;;;;;44.60;19.75;;;;;;;-3.73;54.94;102007.17;1715307;83;21365;-57
2023/02/11 01:05:52;;;;;;;47.98;21.70;;;;;;;-3.73;54.84;102015.19;1717695;82;21343;-57
2023/02/11 01:09:16;;;;;;;50.08;23.57;;;;;;;-3.70;54.84;102013.76;1697597;83;21369;-57
2023/02/11 01:12:39;;;;;;;42.38;20.37;;;;;;;-3.64;54.95;102013.11;1697815;83;21232;-58
2023/02/11 01:16:06;;;;;;;42.88;20.88;;;;;;;-3.58;55.08;102006.23;1721014;83;21267;-57
2023/02/11 01:19:17;;;;;;;38.73;19.70;;;;;;;-3.49;55.21;102008.61;1716007;83;21219;-57
2023/02/11 01:22:33;;;;;;;40.00;20.55;;;;;;;-3.42;55.28;102009.30;1699139;83;21216;-57
2023/02/11 01:25:48;;;;;;;37.90;20.27;;;;;;;-3.34;55.31;102001.91;1716495;83;21453;-57
2023/02/11 01:29:06;;;;;;;37.63;20.17;;;;;;;-3.26;55.35;102003.42;1703265;83;21373;-57
2023/02/11 01:32:32;;;;;;;45.55;23.70;;;;;;;-3.20;55.37;102008.58;1714355;83;21378;-57
2023/02/11 01:35:47;;;;;;;53.73;27.60;;;;;;;-3.13;55.42;102007.91;1693676;82;21227;-57
2023/02/11 01:39:12;;;;;;;61.55;30.88;;;;;;;-3.10;55.43;102010.03;1708141;82;21338;-57
2023/02/11 01:42:29;;;;;;;55.25;29.48;;;;;;;-3.09;55.43;102001.06;1719350;81;21392;-57
2023/02/11 01:46:01;;;;;;;57.43;28.80;;;;;;;-3.08;55.36;102000.13;1696633;82;21232;-57
2023/02/11 01:49:17;;;;;;;69.62;30.65;;;;;;;-3.07;55.35;102001.02;1699011;83;21200;-56
2023/02/11 01:52:41;;;;;;;50.25;26.93;;;;;;;-3.03;55.38;102003.13;1695728;84;21785;-59
2023/02/11 01:59:36;;;;;;;30.32;19.42;;;;;;;-2.96;55.41;102009.56;1695736;84;21239;-58
2023/02/11 02:03:00;;;;;;;33.33;18.45;;;;;;;-2.92;55.38;102003.20;1696103;84;21269;-57
2023/02/11 02:06:16;;;;;;;28.80;16.73;;;;;;;-2.86;55.45;102004.78;1695907;84;21350;-57
2023/02/11 02:09:34;;;;;;;29.10;16.48;;;;;;;-2.79;55.54;102009.87;1695730;84;21939;-57
2023/02/11 02:12:56;;;;;;;31.17;16.57;;;;;;;-2.73;55.56;102012.36;1686441;84;21761;-58
2023/02/11 02:16:25;;;;;;;29.05;17.57;;;;;;;-2.68;55.51;102019.75;1660928;83;21275;-58
2023/02/11 02:20:00;;;;;;;30.65;16.95;;;;;;;-2.66;55.51;102008.52;1679826;83;21234;-58
2023/02/11 02:23:52;;;;;;;31.17;18.05;;;;;;;-2.58;55.60;102007.80;1666870;83;21223;-58
2023/02/11 02:27:32;;;;;;;25.15;14.90;;;;;;;-2.52;55.64;102015.62;1697182;82;21254;-58
2023/02/11 02:31:30;;;;;;;32.65;16.82;;;;;;;-2.46;55.71;102010.52;1694225;83;21414;-58
2023/02/11 02:35:07;;;;;;;31.52;16.40;;;;;;;-2.42;55.72;102013.03;1698532;84;21284;-58
2023/02/11 02:38:24;;;;;;;28.75;15.72;;;;;;;-2.39;55.72;102006.22;1679674;84;21206;-57
2023/02/11 02:41:50;;;;;;;28.98;16.02;;;;;;;-2.34;55.78;102000.23;1693928;83;21421;-57
2023/02/11 02:45:05;;;;;;;30.17;16.75;;;;;;;-2.28;55.83;102004.48;1712633;82;21740;-58
2023/02/11 02:48:42;;;;;;;35.63;18.85;;;;;;;-2.24;55.92;102006.14;1708628;81;21230;-57
2023/02/11 02:52:22;;;;;;;28.70;15.90;;;;;;;-2.21;55.92;102003.34;1693677;82;21243;-58
2023/02/11 02:56:12;;;;;;;29.45;16.27;;;;;;;-2.17;55.99;101992.45;1717765;82;21215;-58
2023/02/11 02:59:37;;;;;;;30.17;15.75;;;;;;;-2.16;55.92;101996.90;1718655;81;21227;-57
2023/02/11 03:03:24;;;;;;;34.40;19.17;;;;;;;-2.18;55.86;101997.87;1703469;82;21278;-57
2023/02/11 03:11:02;;;;;;;29.42;17.45;;;;;;;-2.15;55.81;101995.95;1715274;81;21196;-57
2023/02/11 03:14:29;;;;;;;32.73;18.10;;;;;;;-2.12;55.85;101987.79;1702000;83;21230;-57
2023/02/11 03:17:50;;;;;;;29.60;17.00;;;;;;;-2.08;55.96;101990.75;1695600;82;21224;-57
2023/02/11 03:21:12;;;;;;;29.87;17.65;;;;;;;-2.01;55.97;102000.80;1684272;82;21386;-57
2023/02/11 03:24:40;;;;;;;33.42;18.15;;;;;;;-2.00;56.04;101994.02;1714139;81;21386;-57
2023/02/11 03:28:02;;;;;;;28.42;16.62;;;;;;;-1.97;56.15;101995.28;1704063;82;21239;-57
2023/02/11 03:31:46;;;;;;;34.27;18.40;;;;;;;-1.92;56.15;101989.25;1714259;82;21752;-59
2023/02/11 03:35:13;;;;;;;34.27;18.75;;;;;;;-1.89;56.14;101989.62;1685103;82;21776;-58
2023/02/11 03:38:40;;;;;;;32.40;18.92;;;;;;;-1.85;56.18;101996.15;1682896;83;21581;-58
2023/02/11 03:41:57;;;;;;;36.95;19.27;;;;;;;-1.80;56.18;101997.31;1709035;82;22177;-58
2023/02/11 03:45:15;;;;;;;36.88;19.40;;;;;;;-1.79;56.16;101993.22;1705341;83;21211;-57
2023/02/11 03:48:41;;;;;;;33.83;18.02;;;;;;;-1.74;56.24;101980.96;1708039;81;21255;-57
2023/02/11 03:52:06;;;;;;;35.48;19.67;;;;;;;-1.72;56.22;101980.45;1680707;82;21237;-58
2023/02/11 03:55:56;;;;;;;33.98;18.98;;;;;;;-1.70;56.19;101978.09;1683370;82;21361;-57
2023/02/11 03:59:21;;;;;;;41.75;20.60;;;;;;;-1.68;56.19;101967.30;1694985;83;21276;-58
2023/02/11 04:02:38;;;;;;;35.23;19.52;;;;;;;-1.66;56.29;101960.95;1643489;84;21251;-58
2023/02/11 04:05:56;;;;;;;36.45;20.35;;;;;;;-1.63;56.33;101970.22;1679128;81;21191;-58
2023/02/11 04:09:10;;;;;;;35.85;19.98;;;;;;;-1.59;56.41;101969.64;1701173;80;21474;-57
2023/02/11 04:12:31;;;;;;;34.65;20.40;;;;;;;-1.55;56.43;101965.89;1695563;82;21428;-58
2023/02/11 04:15:54;;;;;;;32.98;20.08;;;;;;;-1.52;56.43;101968.94;1691055;82;21370;-58
2023/02/11 04:19:07;;;;;;;36.15;19.67;;;;;;;-1.48;56.53;101962.50;1675176;84;21243;-57
2023/02/11 04:22:27;;;;;;;35.20;20.35;;;;;;;-1.47;56.55;101961.09;1698709;83;22013;-57
2023/02/11 04:25:43;;;;;;;38.13;20.62;;;;;;;-1.45;56.53;101965.94;1695537;80;21236;-57
2023/02/11 04:28:55;;;;;;;;;;;;;;;-1.41;56.63;101961.33;1691832;82;21243;-57
2023/02/11 04:32:20;;;;;;;38.13;20.75;;;;;;;-1.41;56.69;101968.89;1701810;83;20219;-58
2023/02/11 04:35:35;;;;;;;40.80;20.85;;;;;;;-1.38;56.78;101959.86;1698008;82;21386;-58
2023/02/11 04:38:54;;;;;;;41.70;21.55;;;;;;;-1.36;56.82;101960.67;1712997;82;21279;-56
2023/02/11 04:42:13;;;;;;;42.83;23.80;;;;;;;-1.33;56.84;101965.92;1688097;83;21240;-57
2023/02/11 04:45:23;;;;;;;39.67;22.77;;;;;;;-1.30;56.87;101968.48;1681865;82;21272;-58
2023/02/11 04:48:41;;;;;;;37.23;22.05;;;;;;;-1.30;56.79;101959.08;1688554;81;21282;-57
2023/02/11 04:51:56;;;;;;;39.55;21.95;;;;;;;-1.31;56.79;101962.22;1660113;82;21295;-57
2023/02/11 04:55:28;;;;;;;43.33;21.33;;;;;;;-1.29;56.92;101971.10;1693444;81;21251;-57
2023/02/11 04:58:59;;;;;;;38.92;21.15;;;;;;;-1.23;56.94;101964.59;1686358;82;21374;-57
2023/02/11 05:02:38;;;;;;;37.55;21.45;;;;;;;-1.21;56.89;101964.95;1678249;83;21323;-57
2023/02/11 05:05:50;;;;;;;41.88;23.35;;;;;;;-1.16;56.95;101960.27;1655950;83;21292;-57
2023/02/11 05:09:13;;;;;;;44.88;25.25;;;;;;;-1.10;56.93;101960.46;1652411;85;21833;-57
2023/02/11 05:12:28;;;;;;;43.05;23.92;;;;;;;-1.09;56.87;101956.83;1681787;80;21736;-57
2023/02/11 05:15:50;;;;;;;57.00;28.83;;;;;;;-1.06;56.85;101954.89;1702070;82;21236;-58
2023/02/11 05:19:16;;;;;;;50.65;24.90;;;;;;;-1.05;56.85;101958.47;1650707;86;21822;-57
2023/02/11 05:22:26;;;;;;;49.70;25.20;;;;;;;-1.04;56.85;101951.69;1659026;83;21790;-57
2023/02/11 05:25:43;;;;;;;50.03;26.42;;;;;;;-1.00;56.91;101939.85;1628178;83;21228;-57
2023/02/11 05:29:25;;;;;;;47.08;26.45;;;;;;;-0.97;56.95;101938.86;1686532;83;21292;-58
2023/02/11 05:32:46;;;;;;;48.45;26.62;;;;;;;-0.84;56.99;101936.06;1857905;76;22196;-58
2023/02/11 05:36:01;;;;;;;47.00;25.97;;;;;;;-0.85;57.01;101931.61;1780062;78;21220;-57
2023/02/11 05:39:15;;;;;;;49.63;27.85;;;;;;;-0.80;57.07;101931.83;1771561;79;21237;-58
2023/02/11 05:43:03;;;;;;;48.70;27.75;;;;;;;-0.74;57.13;101936.05;1771577;80;21188;-58
2023/02/11 05:46:20;;;;;;;52.53;28.30;;;;;;;-0.68;57.13;101933.12;1771454;79;21240;-57
2023/02/11 05:49:41;;;;;;;50.10;27.50;;;;;;;-0.61;57.16;101935.92;1739985;81;21398;-57
2023/02/11 05:53:04;;;;;;;42.88;25.65;;;;;;;-0.56;57.21;101935.25;1739422;82;21721;-56
2023/02/11 05:56:24;;;;;;;46.92;25.97;;;;;;;-0.51;57.21;101937.28;1741626;81;21229;-57
2023/02/11 05:59:44;;;;;;;44.03;24.02;;;;;;;-0.47;57.20;101934.38;1742077;81;21240;-55
2023/02/11 06:03:13;;;;;;;40.12;24.07;;;;;;;-0.40;57.30;101941.22;1732831;82;21386;-58
2023/02/11 06:06:36;;;;;;;;;;;;;;;-0.33;57.31;101940.47;1736748;82;21236;-58
2023/02/11 06:09:57;;;;;;;42.27;24.47;;;;;;;-0.28;57.25;101935.77;1739821;81;20204;-57
2023/02/11 06:13:13;;;;;;;40.55;24.10;;;;;;;-0.26;57.28;101928.50;1739961;82;21252;-57
2023/02/11 06:16:39;;;;;;;40.45;24.15;;;;;;;-0.23;57.37;101922.52;1738687;81;21216;-56
2023/02/11 06:20:05;;;;;;;41.50;23.77;;;;;;;-0.15;57.41;101930.23;1740575;81;21308;-56
2023/02/11 06:23:26;;;;;;;39.90;24.32;;;;;;;-0.07;57.50;101926.72;1742181;82;21531;-56
2023/02/11 06:26:43;;;;;;;47.65;26.93;;;;;;;-0.02;57.43;101927.38;1741720;81;21351;-57
2023/02/11 06:29:59;;;;;;;42.70;25.65;;;;;;;0.03;57.45;101923.52;1741639;81;21378;-57
2023/02/11 06:33:18;;;;;;;44.90;25.37;;;;;;;0.10;57.43;101927.26;1740793;81;21248;-57
2023/02/11 06:36:44;;;;;;;42.03;24.55;;;;;;;0.11;57.30;101926.33;1730878;82;21386;-56
2023/02/11 06:40:03;;;;;;;48.85;25.60;;;;;;;0.17;57.33;101923.34;1733049;81;21205;-57
2023/02/11 06:43:44;;;;;;;46.73;27.98;;;;;;;0.34;57.44;101909.94;1872392;76;22244;-57
2023/02/11 06:46:57;;;;;;;51.33;30.10;;;;;;;0.35;57.50;101917.95;1779212;80;21349;-58
2023/02/11 06:50:14;;;;;;;45.83;27.42;;;;;;;0.44;57.52;101912.59;1779182;80;21629;-56
2023/02/11 06:53:33;;;;;;;45.43;24.50;;;;;;;0.52;57.69;101915.80;1764443;80;21175;-57
2023/02/11 06:56:55;;;;;;;51.53;29.20;;;;;;;0.64;57.73;101916.52;1765107;80;21191;-57
2023/02/11 07:04:13;;;;;;;57.25;32.08;;;;;;;0.76;57.71;101920.83;1780719;79;21317;-58
2023/02/11 07:07:52;;;;;;;53.30;27.93;;;;;;;0.86;57.75;101915.86;1679803;85;21240;-58
2023/02/11 07:11:18;;;;;;;45.43;26.12;;;;;;;0.94;57.63;101913.64;1677833;84;21272;-57
2023/02/11 07:15:06;;;;;;;47.38;27.40;;;;;;;1.00;57.60;101908.82;1677308;85;21240;-58
2023/02/11 07:18:49;;;;;;;42.48;25.10;;;;;;;1.10;57.69;101916.84;1676978;85;21279;-57
2023/02/11 07:22:49;;;;;;;47.80;27.15;;;;;;;1.20;57.74;101911.39;1678312;85;21212;-57
2023/02/11 07:26:07;;;;;;;47.83;27.65;;;;;;;1.28;57.68;101917.27;1681928;85;21272;-57
2023/02/11 07:29:51;;;;;;;48.08;27.35;;;;;;;1.40;57.70;101917.08;1662946;85;21236;-57
2023/02/11 07:33:16;;;;;;;40.67;25.12;;;;;;;1.53;57.67;101912.78;1678012;85;21741;-57
2023/02/11 07:36:30;;;;;;;44.27;26.05;;;;;;;1.65;57.66;101913.97;1677554;85;21272;-57
2023/02/11 07:39:51;;;;;;;47.13;27.90;;;;;;;1.73;57.63;101904.98;1677311;85;21732;-58
2023/02/11 07:46:48;;;;;;;47.40;27.65;;;;;;;2.01;57.65;101900.70;1815259;78;20231;-57
2023/02/11 07:50:21;;;;;;;48.65;26.37;;;;;;;2.14;57.70;101907.14;1818767;78;21425;-57
2023/02/11 07:54:07;;;;;;;42.25;25.50;;;;;;;2.28;57.76;101899.62;1803026;77;21181;-58
2023/02/11 08:01:17;;;;;;;48.63;27.58;;;;;;;2.52;57.71;101886.93;1834585;78;21542;-57
2023/02/11 08:04:48;;;;;;;47.88;26.95;;;;;;;2.61;57.60;101884.19;1835122;77;21640;-58
2023/02/11 08:08:03;;;;;;;45.73;26.95;;;;;;;2.68;57.58;101885.59;1836842;78;21324;-57
2023/02/11 08:11:34;;;;;;;42.45;27.05;;;;;;;2.75;57.65;101882.91;1835473;77;21189;-58
2023/02/11 08:14:55;;;;;;;48.05;29.15;;;;;;;2.85;57.69;101875.50;1836466;78;21323;-58
2023/02/11 08:18:15;;;;;;;50.55;28.98;;;;;;;2.96;57.69;101875.77;1837464;77;21331;-58
2023/02/11 08:21:59;;;;;;;51.73;29.55;;;;;;;3.05;57.64;101882.44;1838469;76;21454;-58
2023/02/11 08:25:47;;;;;;;54.88;31.48;;;;;;;3.16;57.66;101865.55;1795758;80;21686;-58
2023/02/11 08:29:21;;;;;;;44.38;27.52;;;;;;;3.28;57.59;101862.12;1782328;80;21359;-57
2023/02/11 08:32:25;;;;;;;49.93;29.20;;;;;;;3.42;57.54;101855.38;1764358;81;21263;-57
2023/02/11 08:35:56;;;;;;;48.65;30.20;;;;;;;3.54;57.52;101855.95;1795043;80;21196;-57
2023/02/11 08:39:48;;;;;;;54.75;29.95;;;;;;;3.66;57.49;101850.68;1782318;80;21190;-57
2023/02/11 08:43:10;;;;;;;52.03;28.30;;;;;;;3.78;57.48;101847.66;1769100;81;21211;-58
2023/02/11 08:46:58;;;;;;;51.95;28.47;;;;;;;3.87;57.31;101839.82;1767931;80;21189;-57
2023/02/11 08:55:10;;;;;;;45.20;28.07;;;;;;;4.18;57.27;101827.41;1822928;77;21185;-57
2023/02/11 08:58:29;;;;;;;42.80;27.32;;;;;;;4.40;57.31;101833.64;1838940;77;21880;-57
2023/02/11 09:01:52;;;;;;;40.95;26.80;;;;;;;4.54;57.28;101818.67;1862847;77;21943;-57
2023/02/11 09:05:12;;;;;;;44.08;27.37;;;;;;;4.67;57.17;101810.11;1765041;81;21968;-57
2023/02/11 09:08:26;;;;;;;44.67;28.07;;;;;;;4.73;57.00;101811.52;1784928;79;21193;-57
2023/02/11 09:11:56;;;;;;;48.85;29.00;;;;;;;4.78;56.97;101803.94;1761433;81;21273;-58
2023/02/11 09:15:50;;;;;;;44.95;26.57;;;;;;;4.82;56.84;101793.28;1795639;79;21344;-57
2023/02/11 09:19:34;;;;;;;50.80;30.37;;;;;;;4.80;56.42;101784.37;1878248;75;20678;-57
2023/02/11 09:23:42;;;;;;;46.68;29.32;;;;;;;4.60;56.28;101781.65;1813111;76;21236;-57
2023/02/11 09:26:58;;;;;;;46.92;30.45;;;;;;;4.55;56.44;101780.61;1666037;82;21359;-59
2023/02/11 09:34:08;;;;;;;43.85;27.77;;;;;;;4.91;57.08;101770.94;1637585;84;21879;-56
2023/02/11 09:37:39;;;;;;;53.25;29.48;;;;;;;5.13;57.23;101763.03;1712119;82;21797;-57
2023/02/11 10:05:58;;;;;;;39.48;25.95;;;;;;;5.76;57.02;101725.83;1768058;76;21321;-57
2023/02/11 10:09:50;;;;;;;44.70;27.30;;;;;;;5.90;56.98;101713.00;1766414;78;21239;-56
2023/02/11 10:14:31;;;;;;;46.53;28.67;;;;;;;6.04;56.95;101710.63;1714522;80;21230;-58
2023/02/11 10:18:58;;;;;;;43.28;26.93;;;;;;;6.12;56.96;101712.25;1756425;79;21273;-60
2023/02/11 10:22:59;;;;;;;41.13;25.32;;;;;;;5.94;56.72;101708.21;1756582;79;21217;-56
2023/02/11 11:21:31;;;;;;;42.58;24.63;;;;;;;4.95;57.63;101629.52;1765762;79;22762;-56
2023/02/11 11:52:35;;;;;;;38.05;23.55;;;;;;;5.07;57.59;101551.79;1767267;77;22339;-56
2023/02/11 11:56:37;;;;;;;40.83;23.60;;;;;;;5.04;57.59;101547.47;1733771;79;21820;-56
2023/02/11 12:06:33;;;;;;;44.18;27.77;;;;;;;5.16;57.52;101529.39;1756635;76;21277;-56
2023/02/11 12:21:07;;;;;;;49.27;27.52;;;;;;;4.92;57.42;101510.84;1757121;79;22593;-57
2023/02/11 12:50:47;;;;;;;47.65;25.37;;;;;;;4.61;57.78;101471.03;1830724;77;21364;-57
2023/02/11 13:04:44;;;;;;;47.93;28.30;;;;;;;4.42;57.75;101459.79;1724488;78;21223;-55
2023/02/11 13:08:54;;;;;;;49.05;27.95;;;;;;;4.39;57.76;101452.39;1706746;83;22079;-56
2023/02/11 13:36:51;;;;;;;52.77;29.93;;;;;;;3.84;58.18;101437.81;1662453;80;21295;31
2023/02/11 14:20:01;;;;;;;44.55;25.70;;;;;;;3.83;58.50;101398.18;1806477;75;22249;-57
2023/02/11 14:35:35;;;;;;;50.75;28.52;;;;;;;3.58;58.72;101378.34;1862620;75;22277;-56
2023/02/11 14:49:57;;;;;;;44.83;29.63;;;;;;;3.37;58.69;101353.64;1825845;76;29010;-61
2023/02/11 15:15:33;;;;;;;45.63;27.52;;;;;;;2.90;58.98;101324.44;1813486;73;22282;31
2023/02/11 15:19:51;;;;;;;49.00;30.40;;;;;;;2.81;58.98;101332.30;1685788;79;21519;-56
2023/02/11 15:30:56;;;;;;;51.77;28.67;;;;;;;2.66;59.15;101308.52;1710065;78;21213;-59
2023/02/11 15:54:38;;;;;;;58.63;31.82;;;;;;;2.60;59.56;101288.67;1764909;77;22397;-57
2023/02/11 15:58:23;;;;;;;58.83;31.50;;;;;;;2.52;59.56;101287.47;1787692;77;21459;-57
2023/02/11 16:44:13;;;;;;;55.95;31.97;;;;;;;2.56;60.16;101249.80;1687549;79;21258;31
2023/02/11 17:02:56;;;;;;;47.58;25.48;;;;;;;2.65;60.34;101199.16;1680398;82;21791;-56
2023/02/11 17:05:52;;;;;;;38.33;22.15;;;;;;;2.60;60.27;101179.72;1679694;82;22225;-57
2023/02/11 17:12:52;;;;;;;36.77;23.30;;;;;;;2.55;60.38;101171.90;1709054;77;21752;-57
2023/02/11 17:31:43;;;;;;;43.75;24.05;;;;;;;2.48;60.66;101136.83;1673141;80;21428;-58
2023/02/11 17:46:08;;;;;;;41.23;23.70;;;;;;;2.49;60.94;101110.69;1749564;79;22619;-57
2023/02/11 17:50:08;;;;;;;42.08;24.37;;;;;;;2.45;61.02;101107.80;1730180;79;21268;-57
2023/02/11 18:23:02;;;;;;;42.23;23.70;;;;;;;2.48;61.49;101057.60;1838943;77;22273;-56
2023/02/11 19:27:15;;;;;;;32.45;20.17;;;;;;;2.71;62.23;100989.28;1773266;79;22555;-56
2023/02/11 19:52:40;;;;;;;38.90;19.90;;;;;;;2.61;62.44;100955.77;1815661;79;22315;-58
2023/02/11 20:04:33;;;;;;;38.75;19.73;;;;;;;2.52;62.61;100942.94;1759967;79;22126;-58
2023/02/11 20:19:00;;;;;;;33.58;18.40;;;;;;;2.53;62.79;100920.34;1818805;77;22824;-57
2023/02/11 20:37:34;;;;;;;34.65;19.17;;;;;;;2.54;62.98;100901.79;1763166;77;22340;-57
2023/02/11 20:41:56;;;;;;;34.55;19.23;;;;;;;2.49;63.02;100891.83;1735412;80;21241;-56
2023/02/11 20:45:56;;;;;;;32.00;16.52;;;;;;;2.51;63.04;100885.80;1708830;81;21259;-59
2023/02/11 21:14:37;;;;;;;31.55;17.48;;;;;;;2.44;63.21;100827.81;1800912;78;22391;-58
2023/02/11 21:18:08;;;;;;;36.10;18.48;;;;;;;2.39;63.23;100834.03;1763268;80;21192;-57
2023/02/11 21:21:51;;;;;;;31.10;16.93;;;;;;;2.38;63.24;100826.92;1765993;79;21188;-58
2023/02/11 21:28:45;;;;;;;32.30;17.05;;;;;;;2.36;63.27;100814.01;1742795;77;21438;-58
2023/02/11 21:41:20;;;;;;;27.42;16.12;;;;;;;2.30;63.28;100795.56;1738643;77;21237;-59
2023/02/11 21:55:59;;;;;;;34.78;16.60;;;;;;;2.27;63.49;100783.61;1776203;76;22713;-58
2023/02/11 22:25:10;;;;;;;27.75;15.55;;;;;;;1.95;63.71;100754.93;1792384;78;22271;-57
2023/02/11 22:47:06;;;;;;;27.35;14.98;;;;;;;1.79;64.01;100714.34;1703734;77;21234;-58
2023/02/11 23:05:01;;;;;;;30.30;15.25;;;;;;;1.61;64.30;100690.05;1795692;76;22596;-58
2023/02/11 23:30:41;;;;;;;26.57;15.80;;;;;;;1.58;64.87;100676.78;1793695;76;22762;-56
2023/02/11 23:41:57;;;;;;;28.30;16.07;;;;;;;1.61;65.06;100662.59;1690945;80;21438;-57
2023/02/11 23:57:12;;;;;;;28.27;16.48;;;;;;;1.64;65.17;100633.16;1920675;74;22191;-57
